Time;durP1;ratioP1;P1;durP2;ratioP2;P2;SDS_P1;SDS_P2;PMS_P1;PMS_P2;Temp;Humidity;BMP_temperature;BMP_pressure;BME280_temperature;BME280_humidity;BME280_pressure;Samples;Min_cycle;Max_cycle;Signal;HPM_P1;HPM_P2
2023/03/11 00:01:23;;;;;;;11.40;2.03;;;;;;;;;;5077108;28;20217;-68
2023/03/11 00:03:53;;;;;;;5.53;1.80;;;;;;;;;;5077819;28;20217;-70
2023/03/11 00:06:21;;;;;;;4.17;2.43;;;;;;;;;;5077808;28;20210;-71
2023/03/11 00:08:51;;;;;;;8.23;2.53;;;;;;;;;;5077466;28;20272;-70
2023/03/11 00:11:21;;;;;;;5.47;1.80;;;;;;;;;;5077453;28;20261;-70
2023/03/11 00:13:49;;;;;;;4.23;1.53;;;;;;;;;;5077687;28;20245;-70
2023/03/11 00:16:17;;;;;;;6.17;2.07;;;;;;;;;;5077104;28;20285;-70
2023/03/11 00:18:45;;;;;;;6.97;2.87;;;;;;;;;;5077619;28;20206;-70
2023/03/11 00:21:16;;;;;;;5.30;2.30;;;;;;;;;;5077506;28;20261;-70
2023/03/11 00:23:44;;;;;;;7.23;2.27;;;;;;;;;;5077458;28;20472;-70
2023/03/11 00:26:13;;;;;;;5.73;2.30;;;;;;;;;;5077430;28;20234;-69
2023/03/11 00:28:41;;;;;;;7.40;2.23;;;;;;;;;;5077691;28;20213;-70
2023/03/11 00:31:08;;;;;;;3.70;1.70;;;;;;;;;;5076762;28;20230;-70
2023/03/11 00:33:36;;;;;;;7.80;1.97;;;;;;;;;;5077599;28;20213;-70
2023/03/11 00:36:05;;;;;;;6.27;2.10;;;;;;;;;;5077156;28;20241;-71
2023/03/11 00:38:35;;;;;;;4.57;1.77;;;;;;;;;;5077233;28;20229;-71
2023/03/11 00:41:03;;;;;;;4.30;1.83;;;;;;;;;;5079962;28;20233;-69
2023/03/11 00:43:31;;;;;;;4.83;2.10;;;;;;;;;;5081195;28;20277;-70
2023/03/11 00:45:59;;;;;;;4.57;2.13;;;;;;;;;;5080546;28;20310;-70
2023/03/11 00:48:27;;;;;;;4.27;2.23;;;;;;;;;;5081131;28;20206;-71
2023/03/11 00:50:55;;;;;;;4.10;1.57;;;;;;;;;;5080822;28;20214;-70
2023/03/11 00:53:23;;;;;;;6.13;2.10;;;;;;;;;;5080770;28;20209;-70
2023/03/11 00:55:52;;;;;;;4.03;1.60;;;;;;;;;;5080742;28;20210;-71
2023/03/11 00:58:21;;;;;;;4.40;1.77;;;;;;;;;;5080971;28;20214;-70
2023/03/11 01:00:49;;;;;;;2.67;2.10;;;;;;;;;;5078046;28;20221;-70
2023/03/11 01:03:17;;;;;;;4.30;1.97;;;;;;;;;;5074624;28;20252;-70
2023/03/11 01:05:45;;;;;;;3.87;1.63;;;;;;;;;;5082703;28;20224;-70
2023/03/11 01:08:13;;;;;;;2.50;1.60;;;;;;;;;;5081103;28;20245;-70
2023/03/11 01:10:41;;;;;;;4.07;1.60;;;;;;;;;;5080937;28;20225;-70
2023/03/11 01:13:10;;;;;;;3.23;1.50;;;;;;;;;;5080385;28;20245;-70
2023/03/11 01:15:38;;;;;;;1.60;1.43;;;;;;;;;;5080345;28;20211;-71
2023/03/11 01:18:06;;;;;;;3.07;1.30;;;;;;;;;;5079869;28;20692;-70
2023/03/11 01:20:34;;;;;;;4.63;1.57;;;;;;;;;;5080562;28;20289;-70
2023/03/11 01:23:02;;;;;;;3.33;1.60;;;;;;;;;;5080303;28;20276;-70
2023/03/11 01:25:30;;;;;;;2.97;1.27;;;;;;;;;;5080675;28;20214;-70
2023/03/11 01:27:58;;;;;;;3.20;1.60;;;;;;;;;;5080088;28;20236;-70
2023/03/11 01:30:28;;;;;;;2.60;1.30;;;;;;;;;;5080264;28;20258;-70
2023/03/11 01:32:57;;;;;;;3.83;1.40;;;;;;;;;;5079719;28;20669;-70
2023/03/11 01:35:26;;;;;;;4.20;1.37;;;;;;;;;;5080137;28;20225;-70
2023/03/11 01:37:54;;;;;;;4.47;1.00;;;;;;;;;;5080171;28;20207;-70
2023/03/11 01:40:24;;;;;;;1.83;1.37;;;;;;;;;;5079867;28;20245;-70
2023/03/11 01:42:52;;;;;;;4.60;2.40;;;;;;;;;;5080226;28;20229;-71
2023/03/11 01:45:33;;;;;;;2.13;1.40;;;;;;;;;;5081316;28;20576;-71
2023/03/11 01:48:01;;;;;;;2.27;1.37;;;;;;;;;;5079737;28;20202;-71
2023/03/11 01:50:32;;;;;;;2.17;1.07;;;;;;;;;;5079545;28;20226;-71
2023/03/11 01:53:00;;;;;;;3.57;1.80;;;;;;;;;;5079746;28;20202;-71
2023/03/11 01:55:28;;;;;;;3.47;1.47;;;;;;;;;;5079857;28;20244;-71
2023/03/11 01:57:56;;;;;;;2.90;1.03;;;;;;;;;;5079925;28;20245;-70
2023/03/11 02:00:24;;;;;;;2.67;1.37;;;;;;;;;;5079371;28;20226;-70
2023/03/11 02:02:55;;;;;;;3.50;1.10;;;;;;;;;;5079499;28;20314;-71
2023/03/11 02:05:25;;;;;;;1.97;1.50;;;;;;;;;;5079779;28;20217;-71
2023/03/11 02:07:55;;;;;;;2.10;1.30;;;;;;;;;;5079841;28;20221;-71
2023/03/11 02:10:23;;;;;;;1.27;1.17;;;;;;;;;;5079297;28;20226;-70
2023/03/11 02:12:51;;;;;;;3.80;1.67;;;;;;;;;;5079388;28;20654;-71
2023/03/11 02:15:19;;;;;;;3.73;1.30;;;;;;;;;;5079512;28;20210;-71
2023/03/11 02:17:47;;;;;;;1.80;1.30;;;;;;;;;;5079239;28;20238;-72
2023/03/11 02:20:20;;;;;;;1.93;1.10;;;;;;;;;;5079317;28;20309;-70
2023/03/11 02:22:48;;;;;;;1.63;1.13;;;;;;;;;;5079332;28;20268;-72
2023/03/11 02:25:21;;;;;;;2.50;1.50;;;;;;;;;;5079375;28;20217;-71
2023/03/11 02:27:52;;;;;;;2.17;1.27;;;;;;;;;;5078987;28;20575;-72
2023/03/11 02:30:20;;;;;;;1.57;1.10;;;;;;;;;;5078825;28;20701;-71
2023/03/11 02:32:48;;;;;;;1.30;1.17;;;;;;;;;;5078495;28;20229;-71
2023/03/11 02:35:16;;;;;;;1.43;1.30;;;;;;;;;;5078891;28;20575;-71
2023/03/11 02:37:45;;;;;;;1.80;1.20;;;;;;;;;;5078747;28;20234;-72
2023/03/11 02:40:43;;;;;;;1.53;1.13;;;;;;;;;;5078901;28;20305;-71
2023/03/11 02:43:14;;;;;;;1.73;1.30;;;;;;;;;;5016986;28;20232;-71
2023/03/11 02:45:44;;;;;;;1.20;1.00;;;;;;;;;;5065617;28;20246;-71
2023/03/11 02:48:12;;;;;;;1.47;1.10;;;;;;;;;;5078559;28;20220;-71
2023/03/11 02:50:41;;;;;;;2.70;1.30;;;;;;;;;;5078628;28;20226;-71
2023/03/11 02:53:09;;;;;;;2.30;1.40;;;;;;;;;;5078867;28;20209;-71
2023/03/11 02:55:37;;;;;;;1.00;1.00;;;;;;;;;;5078709;28;20210;-71
2023/03/11 02:58:05;;;;;;;2.67;1.30;;;;;;;;;;5078820;28;20218;-71
2023/03/11 03:00:34;;;;;;;3.83;1.37;;;;;;;;;;5078304;28;20692;-71
2023/03/11 03:03:02;;;;;;;1.10;1.10;;;;;;;;;;5069994;28;20226;-71
2023/03/11 03:05:30;;;;;;;2.90;1.30;;;;;;;;;;5075623;28;20740;-71
2023/03/11 03:07:58;;;;;;;1.43;0.97;;;;;;;;;;5078461;28;20206;-71
2023/03/11 03:10:26;;;;;;;4.10;1.30;;;;;;;;;;5078183;28;20229;-71
2023/03/11 03:12:56;;;;;;;3.57;1.40;;;;;;;;;;5078257;28;20206;-72
2023/03/11 03:15:24;;;;;;;1.63;1.07;;;;;;;;;;5078410;28;20217;-71
2023/03/11 03:17:55;;;;;;;1.83;1.37;;;;;;;;;;5077833;28;20693;-71
2023/03/11 03:20:25;;;;;;;1.60;1.50;;;;;;;;;;5077943;28;20745;-71
2023/03/11 03:22:53;;;;;;;2.10;1.20;;;;;;;;;;5078202;28;20316;-72
2023/03/11 03:25:22;;;;;;;1.30;1.20;;;;;;;;;;5078016;28;20239;-72
2023/03/11 03:27:50;;;;;;;1.60;1.50;;;;;;;;;;5077948;28;20571;-72
2023/03/11 03:30:18;;;;;;;2.20;1.63;;;;;;;;;;5078064;28;20236;-71
2023/03/11 03:32:46;;;;;;;1.30;1.20;;;;;;;;;;5077773;28;20260;-72
2023/03/11 03:35:15;;;;;;;2.23;1.40;;;;;;;;;;5078025;28;20202;-72
2023/03/11 03:37:43;;;;;;;1.47;1.10;;;;;;;;;;5078080;28;20269;-72
2023/03/11 03:40:13;;;;;;;2.70;1.13;;;;;;;;;;5077938;28;20226;-72
2023/03/11 03:42:41;;;;;;;2.90;1.67;;;;;;;;;;5077776;28;20202;-71
2023/03/11 03:45:10;;;;;;;1.97;1.20;;;;;;;;;;5077933;28;20230;-71
2023/03/11 03:47:38;;;;;;;2.90;1.43;;;;;;;;;;5077403;28;20202;-71
2023/03/11 03:50:07;;;;;;;2.13;1.40;;;;;;;;;;5077625;28;20230;-71
2023/03/11 03:52:36;;;;;;;3.13;1.53;;;;;;;;;;5077875;28;20245;-71
2023/03/11 03:55:05;;;;;;;2.43;1.60;;;;;;;;;;5077971;28;20265;-72
2023/03/11 03:57:33;;;;;;;3.30;1.30;;;;;;;;;;5077870;28;20214;-72
2023/03/11 04:00:03;;;;;;;2.37;1.33;;;;;;;;;;5078016;28;20226;-71
2023/03/11 04:02:31;;;;;;;4.30;1.70;;;;;;;;;;5077942;28;20206;-72
2023/03/11 04:04:59;;;;;;;3.27;1.60;;;;;;;;;;5078027;28;20244;-72
2023/03/11 04:07:27;;;;;;;3.70;1.30;;;;;;;;;;5077645;28;20239;-72
2023/03/11 04:09:56;;;;;;;2.37;1.17;;;;;;;;;;5077561;28;20306;-72
2023/03/11 04:12:24;;;;;;;1.67;1.37;;;;;;;;;;5077842;28;20245;-72
2023/03/11 04:14:52;;;;;;;4.40;1.50;;;;;;;;;;5078931;28;20206;-72
2023/03/11 04:17:20;;;;;;;3.47;1.70;;;;;;;;;;5081344;28;20237;-71
2023/03/11 04:19:48;;;;;;;2.57;1.40;;;;;;;;;;5081411;28;20260;-71
2023/03/11 04:22:16;;;;;;;3.27;1.33;;;;;;;;;;5081642;28;20632;-71
2023/03/11 04:24:44;;;;;;;1.77;1.30;;;;;;;;;;5081704;28;20226;-72
2023/03/11 04:27:13;;;;;;;1.83;1.40;;;;;;;;;;5081661;28;20214;-71
2023/03/11 04:29:41;;;;;;;1.60;1.20;;;;;;;;;;5081155;28;20226;-72
2023/03/11 04:32:09;;;;;;;5.80;1.73;;;;;;;;;;5081211;28;20230;-72
2023/03/11 04:34:37;;;;;;;2.20;1.30;;;;;;;;;;5081518;28;20210;-72
2023/03/11 04:37:05;;;;;;;6.23;1.83;;;;;;;;;;5081487;28;20238;-72
2023/03/11 04:39:33;;;;;;;2.00;1.70;;;;;;;;;;5081042;28;20222;-72
2023/03/11 04:42:01;;;;;;;3.63;1.57;;;;;;;;;;5081351;28;20238;-73
2023/03/11 04:44:32;;;;;;;4.37;2.07;;;;;;;;;;5081167;28;20309;-71
2023/03/11 04:47:00;;;;;;;2.57;1.60;;;;;;;;;;5080692;28;20279;-71
2023/03/11 04:49:28;;;;;;;3.37;1.43;;;;;;;;;;5081060;28;20257;-72
2023/03/11 04:51:55;;;;;;;2.60;1.77;;;;;;;;;;5081102;28;20237;-72
2023/03/11 04:54:23;;;;;;;4.03;1.33;;;;;;;;;;5080831;28;20206;-71
2023/03/11 04:56:51;;;;;;;2.27;1.37;;;;;;;;;;5080790;28;20210;-75
2023/03/11 04:59:19;;;;;;;3.57;1.90;;;;;;;;;;5080880;28;20237;-75
2023/03/11 05:01:49;;;;;;;2.40;1.37;;;;;;;;;;5079779;28;20206;-75
2023/03/11 05:04:17;;;;;;;3.50;1.67;;;;;;;;;;5063681;28;20228;-75
2023/03/11 05:06:45;;;;;;;2.40;1.43;;;;;;;;;;5078950;28;20225;-76
2023/03/11 05:09:12;;;;;;;1.80;1.40;;;;;;;;;;5092057;28;20320;-75
2023/03/11 05:11:40;;;;;;;3.57;1.50;;;;;;;;;;5099835;28;20201;-75
2023/03/11 05:14:08;;;;;;;3.70;1.40;;;;;;;;;;5096511;28;20236;-75
2023/03/11 05:16:36;;;;;;;2.17;1.33;;;;;;;;;;5077253;28;20731;-74
2023/03/11 05:19:29;;;;;;;1.90;1.43;;;;;;;;;;5078307;28;20642;-75
2023/03/11 05:21:54;;;;;;;2.53;1.87;;;;;;;;;;5077563;28;20635;-75
2023/03/11 05:24:24;;;;;;;2.23;2.00;;;;;;;;;;5079734;28;20309;-76
2023/03/11 05:26:52;;;;;;;5.50;1.90;;;;;;;;;;5080049;28;20677;-76
2023/03/11 05:29:20;;;;;;;1.70;1.53;;;;;;;;;;5077793;28;20245;-75
2023/03/11 05:31:48;;;;;;;1.80;1.60;;;;;;;;;;5078400;28;20198;-76
2023/03/11 05:34:18;;;;;;;3.70;2.07;;;;;;;;;;5078276;28;20205;-76
2023/03/11 05:36:46;;;;;;;4.73;2.17;;;;;;;;;;5078715;28;20205;-74
2023/03/11 05:39:14;;;;;;;3.43;2.00;;;;;;;;;;5079017;28;20226;-76
2023/03/11 05:41:42;;;;;;;5.83;2.37;;;;;;;;;;5079058;28;20202;-76
2023/03/11 05:44:10;;;;;;;4.40;2.90;;;;;;;;;;5079153;28;20213;-76
2023/03/11 05:46:38;;;;;;;3.73;3.40;;;;;;;;;;5078957;28;20213;-75
2023/03/11 05:49:06;;;;;;;3.30;3.00;;;;;;;;;;5078957;28;20210;-77
2023/03/11 05:51:36;;;;;;;4.67;3.20;;;;;;;;;;5079012;28;20289;-76
2023/03/11 05:54:10;;;;;;;2.70;2.50;;;;;;;;;;5078783;28;20220;-77
2023/03/11 05:56:38;;;;;;;5.93;2.77;;;;;;;;;;5079106;28;20217;-77
2023/03/11 05:59:06;;;;;;;2.70;2.50;;;;;;;;;;5078443;28;20245;-77
2023/03/11 06:01:34;;;;;;;3.17;2.87;;;;;;;;;;5078472;28;20288;-77
2023/03/11 06:04:02;;;;;;;2.83;2.63;;;;;;;;;;5078497;28;20308;-76
2023/03/11 06:06:30;;;;;;;2.93;2.73;;;;;;;;;;5078537;28;20276;-76
2023/03/11 06:09:00;;;;;;;2.90;2.43;;;;;;;;;;5034628;28;1261212;-76
2023/03/11 06:11:28;;;;;;;2.60;2.40;;;;;;;;;;5079681;28;20213;-76
2023/03/11 06:13:57;;;;;;;3.20;2.30;;;;;;;;;;5079772;28;20240;-76
2023/03/11 06:16:27;;;;;;;2.97;2.50;;;;;;;;;;5070052;28;20195;-76
2023/03/11 06:18:55;;;;;;;3.00;2.67;;;;;;;;;;5077592;28;20230;-76
2023/03/11 06:21:25;;;;;;;4.47;2.60;;;;;;;;;;5079264;28;20214;-77
2023/03/11 06:23:53;;;;;;;3.13;2.57;;;;;;;;;;5078830;28;20213;-76
2023/03/11 06:26:23;;;;;;;3.60;2.77;;;;;;;;;;5079009;28;20225;-76
2023/03/11 06:28:52;;;;;;;3.03;2.73;;;;;;;;;;5079154;28;20205;-77
2023/03/11 06:31:21;;;;;;;3.67;2.73;;;;;;;;;;5078624;28;20210;-75
2023/03/11 06:33:48;;;;;;;3.47;3.07;;;;;;;;;;5078860;28;20198;-77
2023/03/11 06:36:17;;;;;;;3.63;2.83;;;;;;;;;;5078761;28;20217;-76
2023/03/11 06:38:46;;;;;;;3.47;2.50;;;;;;;;;;5077901;28;20577;-76
2023/03/11 06:41:13;;;;;;;2.77;2.57;;;;;;;;;;5078568;28;20222;-76
2023/03/11 06:43:43;;;;;;;4.83;3.33;;;;;;;;;;5078799;28;20241;-76
2023/03/11 06:46:12;;;;;;;3.07;2.70;;;;;;;;;;5078170;28;20287;-75
2023/03/11 06:48:40;;;;;;;3.80;3.03;;;;;;;;;;5078824;28;20217;-76
2023/03/11 06:51:08;;;;;;;3.20;2.90;;;;;;;;;;5082147;28;20362;-76
2023/03/11 06:53:36;;;;;;;3.57;2.80;;;;;;;;;;5098507;28;20205;-76
2023/03/11 06:56:05;;;;;;;4.30;3.00;;;;;;;;;;5098706;28;20204;-76
2023/03/11 06:58:34;;;;;;;2.90;2.63;;;;;;;;;;5098585;28;20259;-77
2023/03/11 07:01:05;;;;;;;3.60;3.30;;;;;;;;;;5098296;28;20271;-75
2023/03/11 07:03:33;;;;;;;4.17;3.20;;;;;;;;;;5098820;28;20296;-77
2023/03/11 07:06:01;;;;;;;3.30;2.97;;;;;;;;;;5098149;28;20245;-77
2023/03/11 07:08:31;;;;;;;2.60;2.40;;;;;;;;;;5098514;28;20245;-76
2023/03/11 07:11:05;;;;;;;2.43;2.23;;;;;;;;;;5088119;28;20226;-75
2023/03/11 07:13:33;;;;;;;2.87;2.57;;;;;;;;;;5077898;28;20652;-74
2023/03/11 07:16:02;;;;;;;2.50;2.03;;;;;;;;;;5077574;28;20198;-77
2023/03/11 07:18:32;;;;;;;1.87;1.77;;;;;;;;;;5080304;28;20744;-76
2023/03/11 07:21:01;;;;;;;2.20;2.00;;;;;;;;;;5078081;28;20221;-75
2023/03/11 07:23:29;;;;;;;2.70;2.50;;;;;;;;;;5077975;28;20657;-77
2023/03/11 07:25:57;;;;;;;2.43;1.80;;;;;;;;;;5075581;28;20253;-75
2023/03/11 07:28:26;;;;;;;2.30;2.10;;;;;;;;;;5071585;28;20198;-75
2023/03/11 07:30:54;;;;;;;2.20;2.10;;;;;;;;;;5072573;28;20245;-73
2023/03/11 07:33:22;;;;;;;2.23;2.03;;;;;;;;;;5076783;28;20294;-70
2023/03/11 07:35:52;;;;;;;2.00;1.90;;;;;;;;;;5077150;28;20202;-70
2023/03/11 07:38:20;;;;;;;1.93;1.80;;;;;;;;;;5077307;28;20272;-70
2023/03/11 07:40:57;;;;;;;1.73;1.63;;;;;;;;;;5074645;28;20260;-72
2023/03/11 07:43:25;;;;;;;2.10;1.90;;;;;;;;;;5065469;28;20285;-70
2023/03/11 07:46:01;;;;;;;3.43;1.77;;;;;;;;;;5076430;28;20301;-70
2023/03/11 07:48:30;;;;;;;2.13;2.03;;;;;;;;;;5075132;28;20208;-71
2023/03/11 07:51:04;;;;;;;1.90;1.80;;;;;;;;;;5076030;28;20228;-70
2023/03/11 07:53:32;;;;;;;2.10;2.00;;;;;;;;;;5075897;28;20201;-71
2023/03/11 07:56:01;;;;;;;1.97;1.87;;;;;;;;;;5075611;28;20289;-76
2023/03/11 07:58:29;;;;;;;2.03;1.93;;;;;;;;;;5073066;28;20241;-76
2023/03/11 08:00:57;;;;;;;2.00;1.90;;;;;;;;;;5075918;28;20214;-74
2023/03/11 08:03:25;;;;;;;4.00;1.70;;;;;;;;;;5076999;28;20198;-71
2023/03/11 08:05:53;;;;;;;1.93;1.83;;;;;;;;;;5075973;28;20218;-73
2023/03/11 08:08:22;;;;;;;1.97;1.40;;;;;;;;;;5075079;28;20240;-73
2023/03/11 08:10:50;;;;;;;1.57;1.57;;;;;;;;;;5076069;28;20305;-72
2023/03/11 08:13:18;;;;;;;2.33;1.53;;;;;;;;;;5077439;28;20194;-75
2023/03/11 08:15:46;;;;;;;1.40;1.30;;;;;;;;;;5074501;28;20248;-73
2023/03/11 08:18:14;;;;;;;1.40;1.40;;;;;;;;;;5093003;28;20233;-71
2023/03/11 08:20:44;;;;;;;1.47;1.37;;;;;;;;;;5096755;28;20229;-72
2023/03/11 08:23:12;;;;;;;2.40;2.07;;;;;;;;;;5095589;28;20237;-70
2023/03/11 08:25:41;;;;;;;1.50;1.40;;;;;;;;;;5096036;28;20247;-71
2023/03/11 08:28:09;;;;;;;1.40;1.30;;;;;;;;;;5096033;28;20233;-70
2023/03/11 08:30:37;;;;;;;1.23;1.13;;;;;;;;;;5090222;28;20252;-71
2023/03/11 08:33:08;;;;;;;1.70;1.20;;;;;;;;;;5075724;28;20214;-72
2023/03/11 08:35:36;;;;;;;1.37;1.27;;;;;;;;;;5076273;28;20206;-71
2023/03/11 08:38:04;;;;;;;1.27;1.27;;;;;;;;;;5077276;28;20541;-71
2023/03/11 08:40:32;;;;;;;1.40;1.30;;;;;;;;;;5077173;28;20265;-69
2023/03/11 08:43:02;;;;;;;1.00;1.00;;;;;;;;;;5077409;28;20311;-69
2023/03/11 08:45:30;;;;;;;1.00;1.00;;;;;;;;;;5076906;28;20209;-70
2023/03/11 08:47:58;;;;;;;1.03;1.03;;;;;;;;;;5076946;28;20275;-70
2023/03/11 08:50:26;;;;;;;1.40;1.40;;;;;;;;;;5076983;28;20261;-71
2023/03/11 08:52:55;;;;;;;1.33;1.27;;;;;;;;;;5077138;28;20206;-72
2023/03/11 08:55:26;;;;;;;1.43;1.40;;;;;;;;;;5077260;28;20206;-71
2023/03/11 08:57:55;;;;;;;1.43;1.33;;;;;;;;;;5077226;28;20204;-71
2023/03/11 09:00:25;;;;;;;1.53;1.43;;;;;;;;;;5077682;28;20230;-71
2023/03/11 09:02:53;;;;;;;1.97;1.37;;;;;;;;;;5080581;28;20210;-72
2023/03/11 09:05:22;;;;;;;1.10;1.10;;;;;;;;;;5068207;28;20236;-72
2023/03/11 09:07:51;;;;;;;2.63;1.60;;;;;;;;;;5080609;28;20236;-71
2023/03/11 09:10:19;;;;;;;1.13;1.13;;;;;;;;;;5080514;28;20234;-73
2023/03/11 09:12:47;;;;;;;2.13;1.93;;;;;;;;;;5080602;28;20263;-73
2023/03/11 09:15:15;;;;;;;1.80;1.70;;;;;;;;;;5080620;28;20207;-72
2023/03/11 09:17:45;;;;;;;1.77;1.57;;;;;;;;;;5080299;28;20206;-73
2023/03/11 09:20:13;;;;;;;1.70;1.60;;;;;;;;;;5080158;28;20222;-72
2023/03/11 09:22:41;;;;;;;1.67;1.57;;;;;;;;;;5079707;28;20202;-69
2023/03/11 09:25:11;;;;;;;1.87;1.77;;;;;;;;;;5080105;28;20237;-70
2023/03/11 09:27:40;;;;;;;1.77;1.67;;;;;;;;;;5080844;28;20673;-69
2023/03/11 09:30:09;;;;;;;1.80;1.70;;;;;;;;;;5088547;28;20229;-71
2023/03/11 09:32:37;;;;;;;1.77;1.67;;;;;;;;;;5081156;28;20210;-69
2023/03/11 09:35:07;;;;;;;1.97;1.87;;;;;;;;;;5081733;28;20217;-67
2023/03/11 09:37:35;;;;;;;7.03;2.40;;;;;;;;;;5076578;28;20285;-67
2023/03/11 09:40:03;;;;;;;2.43;2.23;;;;;;;;;;5082767;28;20221;-67
2023/03/11 09:42:35;;;;;;;2.23;2.03;;;;;;;;;;5078200;28;20202;-69
2023/03/11 09:45:05;;;;;;;2.33;2.00;;;;;;;;;;5081204;28;20248;-66
2023/03/11 09:47:41;;;;;;;2.33;1.93;;;;;;;;;;5078987;28;20253;-67
2023/03/11 09:50:15;;;;;;;2.10;2.00;;;;;;;;;;5098260;28;20221;-68
2023/03/11 09:52:44;;;;;;;1.90;1.80;;;;;;;;;;5098309;28;20205;-67
2023/03/11 09:55:21;;;;;;;2.53;2.00;;;;;;;;;;5098291;28;20209;-66
2023/03/11 09:57:51;;;;;;;2.50;2.30;;;;;;;;;;5098227;28;20237;-66
2023/03/11 10:00:20;;;;;;;1.93;1.73;;;;;;;;;;5098220;28;20229;-67
2023/03/11 10:02:49;;;;;;;2.20;2.10;;;;;;;;;;5097916;28;20235;-66
2023/03/11 10:05:22;;;;;;;1.83;1.73;;;;;;;;;;5098026;28;20617;-67
2023/03/11 10:07:54;;;;;;;2.70;1.60;;;;;;;;;;5079938;28;20692;-66
2023/03/11 10:10:22;;;;;;;2.03;1.93;;;;;;;;;;5075501;28;20260;-65
2023/03/11 10:12:52;;;;;;;3.10;2.80;;;;;;;;;;5076538;28;20233;-67
2023/03/11 10:15:23;;;;;;;2.50;2.07;;;;;;;;;;5077890;28;20206;-67
2023/03/11 10:18:05;;;;;;;2.80;2.60;;;;;;;;;;5077400;28;20325;-66
2023/03/11 10:20:38;;;;;;;1.70;1.60;;;;;;;;;;5077357;28;20226;-67
2023/03/11 10:23:12;;;;;;;1.50;1.40;;;;;;;;;;5079993;28;20229;-66
2023/03/11 10:25:47;;;;;;;2.10;1.90;;;;;;;;;;5084114;28;20220;-67
2023/03/11 10:28:18;;;;;;;1.50;1.40;;;;;;;;;;5086017;28;20217;-67
2023/03/11 10:30:47;;;;;;;1.87;1.73;;;;;;;;;;5088658;28;20592;-67
2023/03/11 10:33:19;;;;;;;1.70;1.60;;;;;;;;;;5087670;28;20202;-66
2023/03/11 10:35:51;;;;;;;3.23;2.77;;;;;;;;;;5086004;28;20193;-66
2023/03/11 10:38:21;;;;;;;1.70;1.60;;;;;;;;;;5088376;28;20198;-66
2023/03/11 10:40:51;;;;;;;1.30;1.30;;;;;;;;;;5084412;28;20249;-65
2023/03/11 10:43:21;;;;;;;1.30;1.30;;;;;;;;;;5088522;28;20203;-66
2023/03/11 10:45:49;;;;;;;1.67;1.50;;;;;;;;;;5083664;28;20703;-67
2023/03/11 10:48:18;;;;;;;1.30;1.30;;;;;;;;;;5087296;28;20229;-67
2023/03/11 10:50:50;;;;;;;3.07;1.20;;;;;;;;;;5088369;28;20245;-66
2023/03/11 10:53:19;;;;;;;1.40;1.40;;;;;;;;;;5088318;28;20230;-67
2023/03/11 10:55:48;;;;;;;1.30;1.20;;;;;;;;;;5086712;28;20194;-67
2023/03/11 10:58:17;;;;;;;1.30;1.13;;;;;;;;;;5087182;28;20228;-66
2023/03/11 11:00:46;;;;;;;1.10;1.00;;;;;;;;;;5087781;28;20292;-67
2023/03/11 11:03:20;;;;;;;1.40;1.30;;;;;;;;;;5086971;28;20206;-68
2023/03/11 11:05:58;;;;;;;1.30;1.20;;;;;;;;;;5080143;28;20202;-67
2023/03/11 11:08:27;;;;;;;1.00;0.93;;;;;;;;;;5077306;28;20566;-66
2023/03/11 11:10:56;;;;;;;0.97;0.97;;;;;;;;;;5079557;28;20744;-68
2023/03/11 11:13:24;;;;;;;1.10;1.10;;;;;;;;;;5078295;28;20233;-66
2023/03/11 11:15:57;;;;;;;1.20;1.10;;;;;;;;;;5077535;28;20692;-67
2023/03/11 11:18:27;;;;;;;1.33;1.27;;;;;;;;;;5078200;28;20670;-66
2023/03/11 11:21:04;;;;;;;1.13;1.13;;;;;;;;;;5078349;28;20223;-68
2023/03/11 11:23:37;;;;;;;0.93;0.93;;;;;;;;;;5064693;28;20680;-68
2023/03/11 11:26:06;;;;;;;1.53;1.20;;;;;;;;;;5077548;28;20206;-68
2023/03/11 11:28:34;;;;;;;1.30;1.20;;;;;;;;;;5078287;28;20233;-68
2023/03/11 11:31:03;;;;;;;1.10;0.97;;;;;;;;;;5077795;28;20265;-68
2023/03/11 11:33:32;;;;;;;1.13;1.03;;;;;;;;;;5078191;28;20269;-68
2023/03/11 11:36:02;;;;;;;1.00;1.00;;;;;;;;;;5077798;28;20216;-68
2023/03/11 11:38:32;;;;;;;1.00;1.00;;;;;;;;;;5078099;28;20212;-67
2023/03/11 11:41:02;;;;;;;1.47;1.00;;;;;;;;;;5078083;28;20234;-67
2023/03/11 11:43:40;;;;;;;1.03;1.03;;;;;;;;;;5078494;28;20213;-67
2023/03/11 11:46:15;;;;;;;1.20;1.20;;;;;;;;;;5077532;28;20233;-67
2023/03/11 11:48:47;;;;;;;1.20;1.20;;;;;;;;;;5077610;28;20226;-67
2023/03/11 11:51:18;;;;;;;1.20;1.20;;;;;;;;;;5077872;28;20257;-67
2023/03/11 11:53:50;;;;;;;1.23;1.13;;;;;;;;;;5077924;28;20237;-67
2023/03/11 11:56:18;;;;;;;1.10;1.10;;;;;;;;;;5077699;28;20720;-67
2023/03/11 11:58:47;;;;;;;1.93;1.67;;;;;;;;;;5077855;28;20202;-67
2023/03/11 12:01:15;;;;;;;1.17;1.17;;;;;;;;;;5077288;28;20700;-67
2023/03/11 12:03:59;;;;;;;1.90;1.70;;;;;;;;;;5077621;28;20241;-67
2023/03/11 12:06:29;;;;;;;1.23;1.20;;;;;;;;;;5075952;28;20722;-68
2023/03/11 12:09:04;;;;;;;1.33;1.23;;;;;;;;;;5077491;28;20285;-68
2023/03/11 12:11:36;;;;;;;1.10;1.10;;;;;;;;;;5077499;28;20212;-67
2023/03/11 12:14:07;;;;;;;2.33;1.40;;;;;;;;;;5077514;28;20237;-67
2023/03/11 12:16:41;;;;;;;1.47;1.37;;;;;;;;;;5077548;28;20221;-68
2023/03/11 12:19:18;;;;;;;1.13;1.13;;;;;;;;;;5077973;28;20251;-67
2023/03/11 12:21:52;;;;;;;1.70;1.60;;;;;;;;;;5077669;28;20198;-68
2023/03/11 12:24:30;;;;;;;1.47;1.37;;;;;;;;;;5077677;28;20240;-67
2023/03/11 12:26:59;;;;;;;1.97;1.83;;;;;;;;;;5077479;28;20218;-67
2023/03/11 12:29:30;;;;;;;1.63;1.10;;;;;;;;;;5077282;28;20233;-66
2023/03/11 12:32:00;;;;;;;1.33;1.23;;;;;;;;;;5077601;28;20233;-68
2023/03/11 12:34:28;;;;;;;1.20;1.20;;;;;;;;;;5078462;28;20202;-67
2023/03/11 12:36:57;;;;;;;1.60;1.50;;;;;;;;;;5080153;28;20637;-67
2023/03/11 12:39:29;;;;;;;1.10;1.10;;;;;;;;;;5081248;28;20250;-67
2023/03/11 12:42:17;;;;;;;2.27;2.10;;;;;;;;;;5081371;28;20217;-67
2023/03/11 12:44:46;;;;;;;1.80;1.70;;;;;;;;;;5081052;28;20214;-69
2023/03/11 12:47:24;;;;;;;17.17;11.20;;;;;;;;;;5080144;28;20289;-72
2023/03/11 12:49:54;;;;;;;3.60;2.97;;;;;;;;;;5079516;28;20226;-70
2023/03/11 12:52:26;;;;;;;1.60;1.50;;;;;;;;;;5082394;28;20225;-70
2023/03/11 12:55:09;;;;;;;1.50;1.40;;;;;;;;;;5082089;28;20266;-71
2023/03/11 12:57:42;;;;;;;1.73;1.63;;;;;;;;;;5071005;28;20713;-70
2023/03/11 13:00:25;;;;;;;1.43;1.43;;;;;;;;;;5081169;28;20855;-71
2023/03/11 13:03:05;;;;;;;1.70;1.60;;;;;;;;;;5077270;28;20284;-70
2023/03/11 13:05:43;;;;;;;1.70;1.60;;;;;;;;;;5079671;28;20541;-70
2023/03/11 13:08:13;;;;;;;2.53;1.33;;;;;;;;;;5080419;28;20256;-71
2023/03/11 13:10:42;;;;;;;1.53;1.50;;;;;;;;;;5077531;28;20222;-69
2023/03/11 13:13:37;;;;;;;2.93;1.90;;;;;;;;;;5081497;28;20204;-69
2023/03/11 13:16:25;;;;;;;1.87;1.77;;;;;;;;;;5044525;28;20199;-69
2023/03/11 13:19:15;;;;;;;1.63;1.53;;;;;;;;;;5075794;28;20248;-70
2023/03/11 13:21:43;;;;;;;1.50;1.40;;;;;;;;;;5079202;28;20234;-70
2023/03/11 13:24:30;;;;;;;1.93;1.77;;;;;;;;;;5080964;28;20241;-69
2023/03/11 13:27:03;;;;;;;2.10;1.90;;;;;;;;;;5076127;28;20583;-70
2023/03/11 13:29:42;;;;;;;2.13;1.90;;;;;;;;;;5077761;28;20705;-70
2023/03/11 13:32:18;;;;;;;1.70;1.60;;;;;;;;;;5073560;28;20281;-69
2023/03/11 13:34:51;;;;;;;2.37;1.63;;;;;;;;;;5079507;28;20198;-69
2023/03/11 13:37:24;;;;;;;2.10;1.90;;;;;;;;;;5076346;28;20664;-69
2023/03/11 13:39:54;;;;;;;1.83;1.73;;;;;;;;;;5077996;28;20228;-69
2023/03/11 13:42:29;;;;;;;2.00;1.90;;;;;;;;;;5081153;28;20285;-70
2023/03/11 13:44:58;;;;;;;2.37;2.20;;;;;;;;;;5076328;28;20568;-69
2023/03/11 13:47:27;;;;;;;2.33;2.13;;;;;;;;;;5078400;28;20230;-70
2023/03/11 13:49:59;;;;;;;2.33;2.23;;;;;;;;;;5079774;28;20237;-72
2023/03/11 13:52:30;;;;;;;2.97;2.40;;;;;;;;;;5079566;28;20645;-73
2023/03/11 13:55:01;;;;;;;2.10;1.90;;;;;;;;;;5080082;28;20202;-70
2023/03/11 13:57:30;;;;;;;2.13;1.90;;;;;;;;;;5080068;28;20205;-68
2023/03/11 14:00:04;;;;;;;2.30;2.13;;;;;;;;;;5079531;28;20226;-69
2023/03/11 14:02:32;;;;;;;2.03;1.93;;;;;;;;;;5066326;28;20576;-69
2023/03/11 14:05:05;;;;;;;2.50;2.17;;;;;;;;;;5079691;28;20213;-69
2023/03/11 14:07:36;;;;;;;2.53;2.33;;;;;;;;;;5079655;28;20214;-70
2023/03/11 14:10:31;;;;;;;2.60;2.40;;;;;;;;;;5079501;28;20238;-70
2023/03/11 14:13:15;;;;;;;2.87;2.10;;;;;;;;;;5044093;28;20304;-68
2023/03/11 14:15:45;;;;;;;2.30;2.10;;;;;;;;;;5078274;28;20198;-69
2023/03/11 14:18:31;;;;;;;2.60;2.40;;;;;;;;;;5076844;28;20281;-69
2023/03/11 14:21:01;;;;;;;2.53;2.33;;;;;;;;;;5078070;28;20252;-69
2023/03/11 14:23:31;;;;;;;3.03;2.33;;;;;;;;;;5078850;28;20653;-68
2023/03/11 14:26:00;;;;;;;2.30;2.20;;;;;;;;;;5078194;28;20206;-69
2023/03/11 14:28:31;;;;;;;2.00;1.90;;;;;;;;;;5078614;28;20229;-66
2023/03/11 14:31:00;;;;;;;2.83;2.63;;;;;;;;;;5076794;28;20233;-67
2023/03/11 14:33:29;;;;;;;2.17;2.07;;;;;;;;;;5079009;28;20716;-69
2023/03/11 14:35:58;;;;;;;2.53;2.33;;;;;;;;;;5078806;28;20679;-72
2023/03/11 14:38:29;;;;;;;2.17;2.03;;;;;;;;;;5078849;28;20217;-69
2023/03/11 14:40:59;;;;;;;9.93;7.17;;;;;;;;;;5078960;28;20244;-69
2023/03/11 14:43:29;;;;;;;4.40;2.30;;;;;;;;;;5078882;28;20206;-68
2023/03/11 14:45:57;;;;;;;2.43;2.23;;;;;;;;;;5078776;28;20240;-68
2023/03/11 14:48:27;;;;;;;2.20;2.03;;;;;;;;;;5078959;28;20208;-68
2023/03/11 14:50:56;;;;;;;1.93;1.83;;;;;;;;;;5078402;28;20275;-68
2023/03/11 14:53:25;;;;;;;2.43;2.23;;;;;;;;;;5078676;28;20214;-67
2023/03/11 14:55:57;;;;;;;2.33;2.20;;;;;;;;;;5078452;28;20669;-67
2023/03/11 14:58:33;;;;;;;4.03;2.10;;;;;;;;;;5078526;28;20664;-66
2023/03/11 15:01:03;;;;;;;2.03;1.93;;;;;;;;;;5078445;28;20221;-67